Lebec, California
Current Conditions -  °F | °C
As of 12:48 AM on Friday 31 Oct 2014 (Local Time) from KSDB Reporting Station
Clear Clear  
Wind Chill: 57°   Ceiling: Unl
Heat Index: 57°   Visibility: 10mi
Dew Point: 39°   Wind: 18mph
Humidity: 51%   Direction: 190°S
Pressure: 30.04"   Gusts: NA
Location:  34.84°N, 118.87°W
Report Text: KSDB 310748Z AUTO 19016KT 10SM CLR 14/04 A3004 RMK AO2 SLP122 T01390039 402500133
Loading
Personal Weather Stations






























Interactive Weather Map
Tropical Storm Tracking
New forecast layout! Learn more

10-Day Weather Forecast

Advertisements
Track Severe Weather on mobile